sensor_id;sensor_type;location;lat;lon;timestamp;pressure;altitude;pressure_sealevel;temperature;humidity
70407;BME280;57821;52.202;0.154;2023-05-03T00:00:49;102919.75;;;6.58;77.98
70407;BME280;57821;52.202;0.154;2023-05-03T00:03:15;102935.97;;;6.56;78.45
70407;BME280;57821;52.202;0.154;2023-05-03T00:05:42;102937.50;;;6.52;77.90
70407;BME280;57821;52.202;0.154;2023-05-03T00:08:09;102936.41;;;6.47;78.57
70407;BME280;57821;52.202;0.154;2023-05-03T00:10:35;102941.56;;;6.47;77.80
70407;BME280;57821;52.202;0.154;2023-05-03T00:13:02;102953.50;;;6.45;78.17
70407;BME280;57821;52.202;0.154;2023-05-03T00:15:28;102964.53;;;6.43;78.59
70407;BME280;57821;52.202;0.154;2023-05-03T00:17:55;102957.47;;;6.39;78.01
70407;BME280;57821;52.202;0.154;2023-05-03T00:20:21;102970.28;;;6.37;78.22
70407;BME280;57821;52.202;0.154;2023-05-03T00:22:48;102972.72;;;6.34;78.70
70407;BME280;57821;52.202;0.154;2023-05-03T00:25:14;102966.59;;;6.32;78.87
70407;BME280;57821;52.202;0.154;2023-05-03T00:27:41;102968.19;;;6.30;79.14
70407;BME280;57821;52.202;0.154;2023-05-03T00:30:08;102960.25;;;6.26;78.58
70407;BME280;57821;52.202;0.154;2023-05-03T00:32:34;102969.75;;;6.27;78.50
70407;BME280;57821;52.202;0.154;2023-05-03T00:35:02;102966.16;;;6.23;79.74
70407;BME280;57821;52.202;0.154;2023-05-03T00:37:28;102957.28;;;6.18;78.84
70407;BME280;57821;52.202;0.154;2023-05-03T00:39:55;102956.41;;;6.17;79.74
70407;BME280;57821;52.202;0.154;2023-05-03T00:42:21;102950.25;;;6.14;79.88
70407;BME280;57821;52.202;0.154;2023-05-03T00:44:48;102957.88;;;6.12;79.26
70407;BME280;57821;52.202;0.154;2023-05-03T00:47:15;102955.25;;;6.11;79.07
70407;BME280;57821;52.202;0.154;2023-05-03T00:49:42;102945.66;;;6.08;78.98
70407;BME280;57821;52.202;0.154;2023-05-03T00:52:09;102950.69;;;6.05;78.94
70407;BME280;57821;52.202;0.154;2023-05-03T00:54:36;102938.53;;;6.03;79.79
70407;BME280;57821;52.202;0.154;2023-05-03T00:57:03;102935.97;;;6.03;79.40
70407;BME280;57821;52.202;0.154;2023-05-03T00:59:31;102930.66;;;6.00;80.32
70407;BME280;57821;52.202;0.154;2023-05-03T01:01:58;102929.84;;;6.01;80.44
70407;BME280;57821;52.202;0.154;2023-05-03T01:04:25;102936.63;;;5.99;80.33
70407;BME280;57821;52.202;0.154;2023-05-03T01:09:44;102919.97;;;5.92;79.65
70407;BME280;57821;52.202;0.154;2023-05-03T01:12:23;102928.72;;;5.96;80.24
70407;BME280;57821;52.202;0.154;2023-05-03T01:17:34;102911.03;;;5.86;79.91
70407;BME280;57821;52.202;0.154;2023-05-03T01:20:05;102925.13;;;5.92;79.59
70407;BME280;57821;52.202;0.154;2023-05-03T01:25:21;102920.69;;;5.90;79.27
70407;BME280;57821;52.202;0.154;2023-05-03T01:27:48;102916.19;;;5.86;79.61
70407;BME280;57821;52.202;0.154;2023-05-03T01:30:15;102916.00;;;5.83;80.44
70407;BME280;57821;52.202;0.154;2023-05-03T01:35:19;102907.34;;;5.81;80.75
70407;BME280;57821;52.202;0.154;2023-05-03T01:37:49;102909.13;;;5.82;80.46
70407;BME280;57821;52.202;0.154;2023-05-03T01:40:17;102902.19;;;5.81;80.92
70407;BME280;57821;52.202;0.154;2023-05-03T01:42:46;102894.47;;;5.81;80.86
70407;BME280;57821;52.202;0.154;2023-05-03T01:45:13;102900.50;;;5.81;80.75
70407;BME280;57821;52.202;0.154;2023-05-03T01:47:40;102911.69;;;5.82;80.44
70407;BME280;57821;52.202;0.154;2023-05-03T01:50:07;102899.47;;;5.77;79.75
70407;BME280;57821;52.202;0.154;2023-05-03T01:52:34;102908.81;;;5.75;80.29
70407;BME280;57821;52.202;0.154;2023-05-03T01:55:01;102914.69;;;5.73;80.02
70407;BME280;57821;52.202;0.154;2023-05-03T01:57:27;102911.88;;;5.68;80.59
70407;BME280;57821;52.202;0.154;2023-05-03T01:59:54;102909.09;;;5.64;80.52
70407;BME280;57821;52.202;0.154;2023-05-03T02:02:20;102924.34;;;5.61;81.77
70407;BME280;57821;52.202;0.154;2023-05-03T02:04:47;102928.47;;;5.57;80.49
70407;BME280;57821;52.202;0.154;2023-05-03T02:07:13;102928.31;;;5.54;81.37
70407;BME280;57821;52.202;0.154;2023-05-03T02:09:40;102931.53;;;5.50;80.60
70407;BME280;57821;52.202;0.154;2023-05-03T02:12:06;102935.66;;;5.47;80.85
70407;BME280;57821;52.202;0.154;2023-05-03T02:14:33;102936.38;;;5.44;80.67
70407;BME280;57821;52.202;0.154;2023-05-03T02:17:00;102934.44;;;5.40;81.36
70407;BME280;57821;52.202;0.154;2023-05-03T02:19:26;102928.97;;;5.34;81.21
70407;BME280;57821;52.202;0.154;2023-05-03T02:21:53;102938.28;;;5.32;80.96
70407;BME280;57821;52.202;0.154;2023-05-03T02:24:22;102936.28;;;5.26;81.56
70407;BME280;57821;52.202;0.154;2023-05-03T02:26:49;102936.16;;;5.23;80.77
70407;BME280;57821;52.202;0.154;2023-05-03T02:29:15;102939.44;;;5.21;81.27
70407;BME280;57821;52.202;0.154;2023-05-03T02:31:42;102937.59;;;5.18;82.08
70407;BME280;57821;52.202;0.154;2023-05-03T02:34:08;102935.72;;;5.16;80.82
70407;BME280;57821;52.202;0.154;2023-05-03T02:36:35;102933.88;;;5.13;81.18
70407;BME280;57821;52.202;0.154;2023-05-03T02:39:01;102936.38;;;5.12;82.42
70407;BME280;57821;52.202;0.154;2023-05-03T02:41:28;102934.63;;;5.11;82.67
70407;BME280;57821;52.202;0.154;2023-05-03T02:43:55;102925.13;;;5.10;82.54
70407;BME280;57821;52.202;0.154;2023-05-03T02:46:23;102932.94;;;5.11;81.97
70407;BME280;57821;52.202;0.154;2023-05-03T02:48:50;102928.59;;;5.10;82.61
70407;BME280;57821;52.202;0.154;2023-05-03T02:51:16;102926.00;;;5.10;82.12
70407;BME280;57821;52.202;0.154;2023-05-03T02:53:43;102921.66;;;5.09;82.49
70407;BME280;57821;52.202;0.154;2023-05-03T02:56:09;102908.72;;;5.08;81.97
70407;BME280;57821;52.202;0.154;2023-05-03T02:58:36;102905.25;;;5.07;82.75
70407;BME280;57821;52.202;0.154;2023-05-03T03:01:03;102898.63;;;5.11;81.74
70407;BME280;57821;52.202;0.154;2023-05-03T03:03:30;102899.41;;;5.10;82.60
70407;BME280;57821;52.202;0.154;2023-05-03T03:05:56;102885.56;;;5.08;82.27
70407;BME280;57821;52.202;0.154;2023-05-03T03:08:23;102874.25;;;5.04;81.65
70407;BME280;57821;52.202;0.154;2023-05-03T03:10:51;102873.13;;;4.99;81.74
70407;BME280;57821;52.202;0.154;2023-05-03T03:13:17;102872.06;;;4.95;82.11
70407;BME280;57821;52.202;0.154;2023-05-03T03:15:44;102874.31;;;4.89;82.22
70407;BME280;57821;52.202;0.154;2023-05-03T03:18:10;102870.56;;;4.83;82.19
70407;BME280;57821;52.202;0.154;2023-05-03T03:20:37;102859.88;;;4.75;81.90
70407;BME280;57821;52.202;0.154;2023-05-03T03:23:03;102862.34;;;4.74;82.04
70407;BME280;57821;52.202;0.154;2023-05-03T03:25:30;102846.78;;;4.71;82.32
70407;BME280;57821;52.202;0.154;2023-05-03T03:27:57;102838.00;;;4.67;82.38
70407;BME280;57821;52.202;0.154;2023-05-03T03:30:24;102837.88;;;4.64;82.89
70407;BME280;57821;52.202;0.154;2023-05-03T03:33:06;102837.69;;;4.61;82.97
70407;BME280;57821;52.202;0.154;2023-05-03T03:35:38;102840.91;;;4.57;82.63
70407;BME280;57821;52.202;0.154;2023-05-03T03:38:05;102838.97;;;4.53;83.34
70407;BME280;57821;52.202;0.154;2023-05-03T03:40:36;102831.88;;;4.49;83.14
70407;BME280;57821;52.202;0.154;2023-05-03T03:43:02;102838.66;;;4.47;83.23
70407;BME280;57821;52.202;0.154;2023-05-03T03:45:29;102848.75;;;4.44;82.85
70407;BME280;57821;52.202;0.154;2023-05-03T03:47:57;102853.72;;;4.41;82.58
70407;BME280;57821;52.202;0.154;2023-05-03T03:50:24;102848.41;;;4.38;83.08
70407;BME280;57821;52.202;0.154;2023-05-03T03:52:51;102852.59;;;4.36;83.09
70407;BME280;57821;52.202;0.154;2023-05-03T03:55:18;102862.78;;;4.34;82.38
70407;BME280;57821;52.202;0.154;2023-05-03T03:57:47;102851.53;;;4.32;83.00
70407;BME280;57821;52.202;0.154;2023-05-03T04:00:14;102850.59;;;4.30;83.54
70407;BME280;57821;52.202;0.154;2023-05-03T04:02:47;102858.19;;;4.29;82.90
70407;BME280;57821;52.202;0.154;2023-05-03T04:05:16;102858.00;;;4.26;83.49
70407;BME280;57821;52.202;0.154;2023-05-03T04:07:44;102848.38;;;4.22;83.51
70407;BME280;57821;52.202;0.154;2023-05-03T04:10:12;102862.81;;;4.20;83.38
70407;BME280;57821;52.202;0.154;2023-05-03T04:12:39;102864.41;;;4.18;83.77
70407;BME280;57821;52.202;0.154;2023-05-03T04:15:06;102875.59;;;4.18;83.17
70407;BME280;57821;52.202;0.154;2023-05-03T04:17:34;102878.06;;;4.17;83.92
70407;BME280;57821;52.202;0.154;2023-05-03T04:20:05;102886.56;;;4.16;84.41
70407;BME280;57821;52.202;0.154;2023-05-03T04:22:32;102880.63;;;4.17;84.04
70407;BME280;57821;52.202;0.154;2023-05-03T04:24:58;102876.28;;;4.16;83.18
70407;BME280;57821;52.202;0.154;2023-05-03T04:27:26;102873.72;;;4.16;84.12
70407;BME280;57821;52.202;0.154;2023-05-03T04:29:53;102864.97;;;4.12;83.79
70407;BME280;57821;52.202;0.154;2023-05-03T04:32:20;102877.06;;;4.14;83.21
70407;BME280;57821;52.202;0.154;2023-05-03T04:34:46;102868.31;;;4.11;83.80
70407;BME280;57821;52.202;0.154;2023-05-03T04:37:16;102875.28;;;4.13;84.28
70407;BME280;57821;52.202;0.154;2023-05-03T04:39:42;102870.09;;;4.12;84.04
70407;BME280;57821;52.202;0.154;2023-05-03T04:42:09;102878.69;;;4.12;83.60
70407;BME280;57821;52.202;0.154;2023-05-03T04:44:36;102876.13;;;4.12;84.18
70407;BME280;57821;52.202;0.154;2023-05-03T04:47:03;102877.88;;;4.13;84.57
70407;BME280;57821;52.202;0.154;2023-05-03T04:49:29;102876.19;;;4.14;83.36
70407;BME280;57821;52.202;0.154;2023-05-03T04:51:56;102881.41;;;4.16;83.96
70407;BME280;57821;52.202;0.154;2023-05-03T04:54:23;102884.16;;;4.19;84.81
70407;BME280;57821;52.202;0.154;2023-05-03T04:56:50;102884.22;;;4.20;84.12
70407;BME280;57821;52.202;0.154;2023-05-03T04:59:17;102892.03;;;4.22;84.39
70407;BME280;57821;52.202;0.154;2023-05-03T05:01:44;102888.75;;;4.24;84.08
70407;BME280;57821;52.202;0.154;2023-05-03T05:04:12;102891.47;;;4.27;84.88
70407;BME280;57821;52.202;0.154;2023-05-03T05:06:43;102891.66;;;4.30;84.99
70407;BME280;57821;52.202;0.154;2023-05-03T05:09:20;102900.41;;;4.34;84.75
70407;BME280;57821;52.202;0.154;2023-05-03T05:11:49;102894.63;;;4.38;84.55
70407;BME280;57821;52.202;0.154;2023-05-03T05:14:17;102903.47;;;4.43;84.85
70407;BME280;57821;52.202;0.154;2023-05-03T05:16:44;102891.63;;;4.45;85.21
70407;BME280;57821;52.202;0.154;2023-05-03T05:19:12;102894.38;;;4.48;84.40
70407;BME280;57821;52.202;0.154;2023-05-03T05:21:39;102891.94;;;4.51;85.48
70407;BME280;57821;52.202;0.154;2023-05-03T05:24:06;102897.28;;;4.54;84.42
70407;BME280;57821;52.202;0.154;2023-05-03T05:26:33;102892.19;;;4.55;84.54
70407;BME280;57821;52.202;0.154;2023-05-03T05:29:01;102892.44;;;4.60;84.77
70407;BME280;57821;52.202;0.154;2023-05-03T05:31:27;102889.25;;;4.64;86.23
70407;BME280;57821;52.202;0.154;2023-05-03T05:33:54;102863.00;;;4.53;85.19
70407;BME280;57821;52.202;0.154;2023-05-03T05:36:21;102879.63;;;4.76;86.13
70407;BME280;57821;52.202;0.154;2023-05-03T05:38:49;102885.16;;;4.84;86.15
70407;BME280;57821;52.202;0.154;2023-05-03T05:41:15;102888.81;;;4.87;85.78
70407;BME280;57821;52.202;0.154;2023-05-03T05:43:43;102898.63;;;4.94;84.93
70407;BME280;57821;52.202;0.154;2023-05-03T05:46:10;102899.75;;;5.00;84.72
70407;BME280;57821;52.202;0.154;2023-05-03T05:48:37;102893.84;;;5.02;85.31
70407;BME280;57821;52.202;0.154;2023-05-03T05:51:05;102882.88;;;5.05;85.06
70407;BME280;57821;52.202;0.154;2023-05-03T05:53:32;102894.34;;;5.11;84.83
70407;BME280;57821;52.202;0.154;2023-05-03T05:56:00;102892.16;;;5.19;84.55
70407;BME280;57821;52.202;0.154;2023-05-03T05:58:30;102885.41;;;5.21;85.28
70407;BME280;57821;52.202;0.154;2023-05-03T06:00:58;102884.84;;;5.26;84.86
70407;BME280;57821;52.202;0.154;2023-05-03T06:03:26;102884.44;;;5.35;86.06
70407;BME280;57821;52.202;0.154;2023-05-03T06:05:55;102883.88;;;5.41;85.22
70407;BME280;57821;52.202;0.154;2023-05-03T06:08:21;102878.16;;;5.46;85.12
70407;BME280;57821;52.202;0.154;2023-05-03T06:10:48;102878.47;;;5.52;85.79
70407;BME280;57821;52.202;0.154;2023-05-03T06:13:14;102872.75;;;5.58;84.86
70407;BME280;57821;52.202;0.154;2023-05-03T06:15:42;102884.16;;;5.63;86.17
70407;BME280;57821;52.202;0.154;2023-05-03T06:18:08;102878.50;;;5.70;85.54
70407;BME280;57821;52.202;0.154;2023-05-03T06:20:35;102880.41;;;5.74;85.43
70407;BME280;57821;52.202;0.154;2023-05-03T06:23:02;102883.50;;;5.85;85.12
70407;BME280;57821;52.202;0.154;2023-05-03T06:25:28;102878.88;;;5.94;85.92
70407;BME280;57821;52.202;0.154;2023-05-03T06:27:55;102881.75;;;6.00;85.48
70407;BME280;57821;52.202;0.154;2023-05-03T06:30:25;102891.81;;;6.13;84.99
70407;BME280;57821;52.202;0.154;2023-05-03T06:32:52;102889.59;;;6.21;84.87
70407;BME280;57821;52.202;0.154;2023-05-03T06:35:19;102887.41;;;6.28;85.21
70407;BME280;57821;52.202;0.154;2023-05-03T06:37:46;102892.16;;;6.38;85.49
70407;BME280;57821;52.202;0.154;2023-05-03T06:40:14;102888.28;;;6.46;85.40
70407;BME280;57821;52.202;0.154;2023-05-03T06:42:40;102898.28;;;6.58;85.29
70407;BME280;57821;52.202;0.154;2023-05-03T06:45:10;102891.66;;;6.65;84.95
70407;BME280;57821;52.202;0.154;2023-05-03T06:47:37;102898.19;;;6.76;84.27
70407;BME280;57821;52.202;0.154;2023-05-03T06:50:04;102891.88;;;6.87;84.65
70407;BME280;57821;52.202;0.154;2023-05-03T06:52:31;102894.84;;;6.96;84.67
70407;BME280;57821;52.202;0.154;2023-05-03T06:54:57;102892.72;;;7.07;84.62
70407;BME280;57821;52.202;0.154;2023-05-03T06:57:24;102883.72;;;7.16;84.24
70407;BME280;57821;52.202;0.154;2023-05-03T06:59:54;102889.34;;;7.27;83.99
70407;BME280;57821;52.202;0.154;2023-05-03T07:02:20;102891.63;;;7.40;83.59
70407;BME280;57821;52.202;0.154;2023-05-03T07:04:47;102885.97;;;7.49;83.92
70407;BME280;57821;52.202;0.154;2023-05-03T07:07:13;102891.78;;;7.64;83.73
70407;BME280;57821;52.202;0.154;2023-05-03T07:09:40;102887.13;;;7.76;83.20
70407;BME280;57821;52.202;0.154;2023-05-03T07:12:09;102894.56;;;7.89;83.74
70407;BME280;57821;52.202;0.154;2023-05-03T07:14:37;102891.69;;;8.02;83.46
70407;BME280;57821;52.202;0.154;2023-05-03T07:17:04;102880.06;;;8.13;83.85
70407;BME280;57821;52.202;0.154;2023-05-03T07:19:30;102891.00;;;8.29;83.12
70407;BME280;57821;52.202;0.154;2023-05-03T07:21:57;102884.56;;;8.40;82.92
70407;BME280;57821;52.202;0.154;2023-05-03T07:24:23;102886.06;;;8.55;83.04
70407;BME280;57821;52.202;0.154;2023-05-03T07:26:51;102880.50;;;8.69;82.48
70407;BME280;57821;52.202;0.154;2023-05-03T07:29:17;102874.91;;;8.80;82.04
70407;BME280;57821;52.202;0.154;2023-05-03T07:31:44;102869.38;;;8.93;82.07
70407;BME280;57821;52.202;0.154;2023-05-03T07:34:10;102879.56;;;9.13;81.70
70407;BME280;57821;52.202;0.154;2023-05-03T07:36:38;102884.38;;;9.26;80.44
70407;BME280;57821;52.202;0.154;2023-05-03T07:39:04;102879.81;;;9.44;80.50
70407;BME280;57821;52.202;0.154;2023-05-03T07:41:31;102885.69;;;9.64;80.33
70407;BME280;57821;52.202;0.154;2023-05-03T07:43:57;102880.28;;;9.83;78.98
70407;BME280;57821;52.202;0.154;2023-05-03T07:46:24;102874.66;;;9.96;78.60
70407;BME280;57821;52.202;0.154;2023-05-03T07:48:51;102877.69;;;10.10;78.09
70407;BME280;57821;52.202;0.154;2023-05-03T07:51:17;102864.13;;;10.17;77.36
70407;BME280;57821;52.202;0.154;2023-05-03T07:53:44;102868.06;;;10.33;76.52
70407;BME280;57821;52.202;0.154;2023-05-03T07:56:10;102872.75;;;10.44;76.88
70407;BME280;57821;52.202;0.154;2023-05-03T07:58:37;102866.16;;;10.55;75.49
70407;BME280;57821;52.202;0.154;2023-05-03T08:01:06;102871.72;;;10.67;74.48
70407;BME280;57821;52.202;0.154;2023-05-03T08:03:33;102864.94;;;10.73;73.87
70407;BME280;57821;52.202;0.154;2023-05-03T08:05:59;102867.94;;;10.86;74.20
70407;BME280;57821;52.202;0.154;2023-05-03T08:08:26;102863.34;;;11.07;74.42
70407;BME280;57821;52.202;0.154;2023-05-03T08:10:53;102855.13;;;11.22;73.56
70407;BME280;57821;52.202;0.154;2023-05-03T08:13:19;102847.53;;;11.30;72.58
70407;BME280;57821;52.202;0.154;2023-05-03T08:15:53;102860.03;;;11.44;72.14
70407;BME280;57821;52.202;0.154;2023-05-03T08:18:19;102859.47;;;11.56;71.81
70407;BME280;57821;52.202;0.154;2023-05-03T08:20:49;102856.25;;;11.65;70.51
70407;BME280;57821;52.202;0.154;2023-05-03T08:23:15;102852.22;;;11.76;70.00
70407;BME280;57821;52.202;0.154;2023-05-03T08:25:42;102858.56;;;11.87;70.10
70407;BME280;57821;52.202;0.154;2023-05-03T08:28:09;102854.41;;;11.95;69.23
70407;BME280;57821;52.202;0.154;2023-05-03T08:30:36;102856.44;;;12.08;68.61
70407;BME280;57821;52.202;0.154;2023-05-03T08:33:02;102860.25;;;12.22;67.76
70407;BME280;57821;52.202;0.154;2023-05-03T08:35:29;102861.28;;;12.30;66.55
70407;BME280;57821;52.202;0.154;2023-05-03T08:38:05;102855.34;;;12.34;66.63
70407;BME280;57821;52.202;0.154;2023-05-03T08:40:32;102860.88;;;12.50;66.42
70407;BME280;57821;52.202;0.154;2023-05-03T08:43:08;102860.28;;;12.63;65.79
70407;BME280;57821;52.202;0.154;2023-05-03T08:45:35;102863.91;;;12.71;64.39
70407;BME280;57821;52.202;0.154;2023-05-03T08:48:01;102855.22;;;12.70;64.65
70407;BME280;57821;52.202;0.154;2023-05-03T08:50:28;102858.91;;;12.80;64.46
70407;BME280;57821;52.202;0.154;2023-05-03T08:52:55;102866.91;;;12.89;64.56
70407;BME280;57821;52.202;0.154;2023-05-03T08:55:22;102873.19;;;13.00;63.37
70407;BME280;57821;52.202;0.154;2023-05-03T08:57:48;102862.94;;;13.08;62.84
70407;BME280;57821;52.202;0.154;2023-05-03T09:00:15;102864.66;;;13.07;62.07
70407;BME280;57821;52.202;0.154;2023-05-03T09:02:42;102863.81;;;13.08;61.92
70407;BME280;57821;52.202;0.154;2023-05-03T09:08:02;102859.88;;;13.27;61.48
70407;BME280;57821;52.202;0.154;2023-05-03T09:10:30;102864.53;;;13.45;61.32
70407;BME280;57821;52.202;0.154;2023-05-03T09:12:57;102869.78;;;13.48;60.16
70407;BME280;57821;52.202;0.154;2023-05-03T09:15:24;102873.25;;;13.47;59.99
70407;BME280;57821;52.202;0.154;2023-05-03T09:20:38;102858.34;;;13.40;59.13
70407;BME280;57821;52.202;0.154;2023-05-03T09:23:06;102864.53;;;13.45;59.44
70407;BME280;57821;52.202;0.154;2023-05-03T09:25:43;102867.91;;;13.41;59.03
70407;BME280;57821;52.202;0.154;2023-05-03T09:28:11;102876.00;;;13.54;59.14
70407;BME280;57821;52.202;0.154;2023-05-03T09:30:38;102869.25;;;13.67;58.89
70407;BME280;57821;52.202;0.154;2023-05-03T09:33:05;102870.53;;;13.90;58.56
70407;BME280;57821;52.202;0.154;2023-05-03T09:35:31;102876.03;;;14.09;57.11
70407;BME280;57821;52.202;0.154;2023-05-03T09:37:58;102875.34;;;14.22;56.59
70407;BME280;57821;52.202;0.154;2023-05-03T09:40:28;102871.94;;;14.26;55.46
70407;BME280;57821;52.202;0.154;2023-05-03T09:45:30;102873.88;;;14.37;55.67
70407;BME280;57821;52.202;0.154;2023-05-03T09:47:57;102869.47;;;14.36;54.99
70407;BME280;57821;52.202;0.154;2023-05-03T09:50:24;102868.44;;;14.27;55.27
70407;BME280;57821;52.202;0.154;2023-05-03T09:52:51;102871.84;;;14.20;55.05
70407;BME280;57821;52.202;0.154;2023-05-03T09:55:18;102865.63;;;14.12;55.11
70407;BME280;57821;52.202;0.154;2023-05-03T09:57:46;102867.38;;;14.13;55.44
70407;BME280;57821;52.202;0.154;2023-05-03T10:00:13;102881.28;;;14.12;55.31
70407;BME280;57821;52.202;0.154;2023-05-03T10:02:40;102879.50;;;14.08;55.06
70407;BME280;57821;52.202;0.154;2023-05-03T10:05:10;102866.28;;;13.97;54.66
70407;BME280;57821;52.202;0.154;2023-05-03T10:07:39;102870.56;;;13.93;54.72
70407;BME280;57821;52.202;0.154;2023-05-03T10:10:07;102860.81;;;13.82;55.29
70407;BME280;57821;52.202;0.154;2023-05-03T10:12:34;102869.47;;;13.79;55.09
70407;BME280;57821;52.202;0.154;2023-05-03T10:15:04;102860.59;;;13.68;54.66
70407;BME280;57821;52.202;0.154;2023-05-03T10:17:33;102864.94;;;13.69;55.09
70407;BME280;57821;52.202;0.154;2023-05-03T10:20:23;102861.56;;;13.73;55.15
70407;BME280;57821;52.202;0.154;2023-05-03T10:25:33;102868.56;;;13.77;55.61
70407;BME280;57821;52.202;0.154;2023-05-03T10:28:07;102852.78;;;13.68;55.29
70407;BME280;57821;52.202;0.154;2023-05-03T10:30:38;102865.00;;;13.72;55.10
70407;BME280;57821;52.202;0.154;2023-05-03T10:35:39;102863.41;;;13.82;56.32
70407;BME280;57821;52.202;0.154;2023-05-03T10:38:16;102868.00;;;13.98;55.99
70407;BME280;57821;52.202;0.154;2023-05-03T10:40:43;102859.44;;;14.05;55.28
70407;BME280;57821;52.202;0.154;2023-05-03T10:46:04;102861.03;;;13.95;54.97
70407;BME280;57821;52.202;0.154;2023-05-03T10:48:32;102856.72;;;13.99;55.21
70407;BME280;57821;52.202;0.154;2023-05-03T10:51:31;102842.88;;;14.02;54.25
70407;BME280;57821;52.202;0.154;2023-05-03T10:53:58;102842.97;;;14.08;54.51
70407;BME280;57821;52.202;0.154;2023-05-03T10:56:24;102843.78;;;14.05;53.33
70407;BME280;57821;52.202;0.154;2023-05-03T10:58:51;102838.50;;;14.01;53.47
70407;BME280;57821;52.202;0.154;2023-05-03T11:01:18;102835.91;;;14.01;54.03
70407;BME280;57821;52.202;0.154;2023-05-03T11:03:51;102828.94;;;13.99;53.52
70407;BME280;57821;52.202;0.154;2023-05-03T11:06:34;102829.72;;;13.94;53.65
70407;BME280;57821;52.202;0.154;2023-05-03T11:09:06;102826.13;;;13.86;54.50
70407;BME280;57821;52.202;0.154;2023-05-03T11:11:35;102831.50;;;13.96;54.26
70407;BME280;57821;52.202;0.154;2023-05-03T11:14:03;102829.88;;;14.03;54.27
70407;BME280;57821;52.202;0.154;2023-05-03T11:16:30;102820.38;;;14.10;53.75
70407;BME280;57821;52.202;0.154;2023-05-03T11:18:58;102826.50;;;14.12;53.58
70407;BME280;57821;52.202;0.154;2023-05-03T11:21:25;102810.75;;;14.06;53.47
70407;BME280;57821;52.202;0.154;2023-05-03T11:23:51;102813.41;;;14.10;53.95
70407;BME280;57821;52.202;0.154;2023-05-03T11:26:18;102811.84;;;14.20;53.47
70407;BME280;57821;52.202;0.154;2023-05-03T11:28:44;102804.09;;;14.27;52.96
70407;BME280;57821;52.202;0.154;2023-05-03T11:31:11;102811.97;;;14.30;52.70
70407;BME280;57821;52.202;0.154;2023-05-03T11:33:39;102799.00;;;14.35;52.68
70407;BME280;57821;52.202;0.154;2023-05-03T11:36:07;102805.19;;;14.40;52.43
70407;BME280;57821;52.202;0.154;2023-05-03T11:38:35;102803.44;;;14.41;52.30
70407;BME280;57821;52.202;0.154;2023-05-03T11:41:22;102799.13;;;14.43;51.45
70407;BME280;57821;52.202;0.154;2023-05-03T11:43:48;102794.78;;;14.43;51.64
70407;BME280;57821;52.202;0.154;2023-05-03T11:46:35;102774.88;;;14.53;51.74
70407;BME280;57821;52.202;0.154;2023-05-03T11:49:02;102771.56;;;14.66;51.68
70407;BME280;57821;52.202;0.154;2023-05-03T11:51:36;102776.13;;;14.87;51.89
70407;BME280;57821;52.202;0.154;2023-05-03T11:54:04;102775.44;;;15.01;50.88
70407;BME280;57821;52.202;0.154;2023-05-03T11:56:53;102771.22;;;15.14;50.55
70407;BME280;57821;52.202;0.154;2023-05-03T11:59:32;102765.97;;;15.14;50.76
70407;BME280;57821;52.202;0.154;2023-05-03T12:02:01;102762.44;;;15.10;50.01
70407;BME280;57821;52.202;0.154;2023-05-03T12:04:28;102759.06;;;15.19;50.59
70407;BME280;57821;52.202;0.154;2023-05-03T12:06:56;102765.31;;;15.36;50.51
70407;BME280;57821;52.202;0.154;2023-05-03T12:09:24;102760.25;;;15.54;49.44
70407;BME280;57821;52.202;0.154;2023-05-03T12:11:52;102749.97;;;15.77;49.45
70407;BME280;57821;52.202;0.154;2023-05-03T12:14:21;102756.19;;;15.99;48.86
70407;BME280;57821;52.202;0.154;2023-05-03T12:16:49;102728.34;;;16.16;48.52
70407;BME280;57821;52.202;0.154;2023-05-03T12:19:28;102743.31;;;16.52;47.83
70407;BME280;57821;52.202;0.154;2023-05-03T12:21:58;102741.69;;;16.75;47.46
70407;BME280;57821;52.202;0.154;2023-05-03T12:24:44;102730.38;;;16.99;46.56
70407;BME280;57821;52.202;0.154;2023-05-03T12:27:14;102724.22;;;17.12;46.90
70407;BME280;57821;52.202;0.154;2023-05-03T12:29:44;102728.63;;;17.29;46.05
70407;BME280;57821;52.202;0.154;2023-05-03T12:32:13;102721.63;;;17.46;45.83
70407;BME280;57821;52.202;0.154;2023-05-03T12:34:40;102722.47;;;17.55;45.18
70407;BME280;57821;52.202;0.154;2023-05-03T12:37:06;102711.09;;;17.55;45.35
70407;BME280;57821;52.202;0.154;2023-05-03T12:39:37;102713.75;;;17.58;45.22
70407;BME280;57821;52.202;0.154;2023-05-03T12:42:06;102700.63;;;17.55;45.73
70407;BME280;57821;52.202;0.154;2023-05-03T12:44:34;102712.84;;;17.48;45.35
70407;BME280;57821;52.202;0.154;2023-05-03T12:47:01;102705.88;;;17.37;45.47
70407;BME280;57821;52.202;0.154;2023-05-03T12:49:29;102694.53;;;17.33;45.87
70407;BME280;57821;52.202;0.154;2023-05-03T12:51:56;102691.91;;;17.38;45.55
70407;BME280;57821;52.202;0.154;2023-05-03T12:54:42;102687.53;;;17.37;45.17
70407;BME280;57821;52.202;0.154;2023-05-03T12:57:13;102697.16;;;17.29;45.58
70407;BME280;57821;52.202;0.154;2023-05-03T12:59:42;102691.91;;;17.13;44.62
70407;BME280;57821;52.202;0.154;2023-05-03T13:02:15;102677.97;;;16.99;45.06
70407;BME280;57821;52.202;0.154;2023-05-03T13:04:45;102677.94;;;17.08;46.12
70407;BME280;57821;52.202;0.154;2023-05-03T13:07:25;102667.41;;;17.36;45.45
70407;BME280;57821;52.202;0.154;2023-05-03T13:09:56;102669.16;;;17.64;45.25
70407;BME280;57821;52.202;0.154;2023-05-03T13:12:26;102665.63;;;17.74;44.93
70407;BME280;57821;52.202;0.154;2023-05-03T13:14:53;102653.41;;;17.70;44.26
70407;BME280;57821;52.202;0.154;2023-05-03T13:17:19;102658.69;;;17.64;44.69
70407;BME280;57821;52.202;0.154;2023-05-03T13:19:46;102666.50;;;17.59;44.87
70407;BME280;57821;52.202;0.154;2023-05-03T13:22:13;102666.53;;;17.56;43.73
70407;BME280;57821;52.202;0.154;2023-05-03T13:24:42;102655.19;;;17.44;43.79
70407;BME280;57821;52.202;0.154;2023-05-03T13:27:09;102650.81;;;17.52;43.82